Time;durP1;ratioP1;P1;durP2;ratioP2;P2;SDS_P1;SDS_P2;PMS_P1;PMS_P2;Temp;Humidity;BMP_temperature;BMP_pressure;BME280_temperature;BME280_humidity;BME280_pressure;Samples;Min_cycle;Max_cycle;Signal;HPM_P1;HPM_P2
2022/11/27 08:59:28;;;;;;;54.67;26.82;;;;;;;8.72;57.66;101429.77;2526584;77;30833;-85
2022/11/27 09:03:10;;;;;;;50.83;27.80;;;;;;;8.72;57.61;101427.17;2514770;77;26108;-78
2022/11/27 09:06:38;;;;;;;57.62;31.02;;;;;;;8.79;57.57;101416.66;2519221;78;25630;-81
2022/11/27 09:10:16;;;;;;;50.38;25.85;;;;;;;8.85;57.51;101420.84;2518285;78;25573;-78
2022/11/27 09:13:38;;;;;;;52.78;26.55;;;;;;;8.92;57.46;101426.81;2514710;78;25776;-77
2022/11/27 09:17:14;;;;;;;55.80;27.85;;;;;;;8.99;57.40;101429.30;2514050;78;25709;-79
2022/11/27 09:20:56;;;;;;;55.98;29.35;;;;;;;9.04;57.35;101421.70;2404679;81;25713;-77
2022/11/27 09:24:19;;;;;;;51.60;28.05;;;;;;;9.11;57.30;101421.16;2356136;83;25751;-79
2022/11/27 09:31:36;;;;;;;48.20;26.68;;;;;;;9.21;57.15;101425.95;2254551;86;26131;-78
2022/11/27 09:35:02;;;;;;;47.20;26.82;;;;;;;9.25;57.10;101428.29;2254834;87;25865;-79
2022/11/27 09:38:30;;;;;;;58.60;28.62;;;;;;;9.27;57.06;101423.64;2232607;87;25990;-79
2022/11/27 09:42:09;;;;;;;50.20;27.07;;;;;;;9.31;57.04;101424.25;2258318;86;25729;-80
2022/11/27 09:45:43;;;;;;;55.67;27.10;;;;;;;9.34;57.00;101429.60;2259764;86;25671;-82
2022/11/27 09:49:17;;;;;;;53.30;28.63;;;;;;;9.38;56.96;101427.64;2276605;84;25752;-87
2022/11/27 09:53:01;;;;;;;50.60;28.20;;;;;;;9.41;56.90;101426.45;2340501;82;25805;-86
2022/11/27 09:56:24;;;;;;;55.65;29.42;;;;;;;9.44;56.88;101413.99;2354537;82;26254;-85
2022/11/27 10:00:01;;;;;;;45.58;28.80;;;;;;;9.49;56.85;101415.10;2287860;85;25728;-86
2022/11/27 10:07:23;;;;;;;49.20;27.00;;;;;;;9.56;56.77;101418.45;2166620;91;26590;-82
2022/11/27 10:11:17;;;;;;;48.35;26.07;;;;;;;9.59;56.76;101415.10;2167701;91;26082;-85
2022/11/27 10:15:17;;;;;;;42.48;25.37;;;;;;;9.63;56.72;101405.30;2153701;91;25786;-80
2022/11/27 10:18:56;;;;;;;46.48;27.13;;;;;;;9.69;56.70;101397.34;2137312;91;25508;-78
2022/11/27 10:26:58;;;;;;;45.43;26.05;;;;;;;9.79;56.63;101390.81;2165324;90;25764;-83
2022/11/27 10:30:28;;;;;;;46.90;25.80;;;;;;;9.87;56.58;101395.04;2170716;89;26450;-80
2022/11/27 10:34:49;;;;;;;47.70;27.33;;;;;;;9.92;56.55;101389.22;2168909;89;25785;-78
2022/11/27 10:38:29;;;;;;;49.13;26.10;;;;;;;9.98;56.50;101385.07;2171452;89;25940;-86
2022/11/27 10:42:29;;;;;;;49.55;27.20;;;;;;;10.05;56.44;101384.49;2164177;89;25813;-83
2022/11/27 10:46:18;;;;;;;44.55;26.77;;;;;;;10.08;56.41;101393.33;2235553;87;25665;-82
2022/11/27 10:49:50;;;;;;;45.40;26.70;;;;;;;10.09;56.37;101382.10;2179632;89;26177;-84
2022/11/27 10:53:29;;;;;;;45.90;25.85;;;;;;;10.12;56.35;101383.53;2161905;90;25799;-78
2022/11/27 10:57:35;;;;;;;42.98;25.72;;;;;;;10.15;56.33;101384.05;2222174;87;25862;-80
2022/11/27 11:01:19;;;;;;;43.23;25.60;;;;;;;10.18;56.32;101381.58;2264679;87;25761;-77
2022/11/27 11:05:03;;;;;;;45.00;26.35;;;;;;;10.17;56.30;101379.39;2251237;85;25770;-77
2022/11/27 11:08:29;;;;;;;44.10;26.33;;;;;;;10.22;56.31;101382.59;2213964;87;25702;-80
2022/11/27 11:12:23;;;;;;;46.88;24.87;;;;;;;10.23;56.30;101379.17;2211531;88;25749;-82
2022/11/27 11:16:00;;;;;;;45.63;25.62;;;;;;;10.23;56.29;101370.94;2191604;88;25827;-78
2022/11/27 11:19:41;;;;;;;43.02;23.02;;;;;;;10.25;56.32;101370.57;2174326;89;25847;-79
2022/11/27 11:23:05;;;;;;;35.73;22.58;;;;;;;10.36;59.25;101373.25;2137254;91;25799;-81
2022/11/27 11:26:49;;;;;;;36.65;22.25;;;;;;;10.54;58.96;101371.78;2165250;89;25783;-82
2022/11/27 11:31:09;;;;;;;;;;;;;;;;;;;;;
2022/11/27 11:34:58;;;;;;;41.30;23.42;;;;;;;10.56;59.01;101367.92;2086278;92;25295;-87
2022/11/27 11:38:46;;;;;;;40.63;23.80;;;;;;;10.54;59.04;101369.17;2082219;93;25909;-89
2022/11/27 11:42:41;;;;;;;35.48;21.40;;;;;;;10.52;58.99;101363.42;2079649;92;25856;-79
2022/11/27 11:46:18;;;;;;;34.85;21.55;;;;;;;10.50;58.93;101358.58;1980584;98;26248;-77
2022/11/27 11:50:10;;;;;;;40.73;23.67;;;;;;;10.47;58.89;101362.36;1956065;98;25784;-82
2022/11/27 11:53:44;;;;;;;38.73;22.85;;;;;;;10.47;58.85;101363.67;1933071;99;25860;-78
2022/11/27 11:58:36;;;;;;;;;;;;;;;;;;;;;
2022/11/27 12:02:04;;;;;;;39.78;21.62;;;;;;;10.45;58.76;101358.79;1933997;100;25868;-78
2022/11/27 12:10:49;;;;;;;;;;;;;;;;;;;;;
2022/11/27 12:15:07;;;;;;;;;;;;;;;;;;;;;
2022/11/27 12:19:22;;;;;;;;;;;;;;;;;;;;;
2022/11/27 12:23:28;;;;;;;;;;;;;;;;;;;;;
2022/11/27 12:27:57;;;;;;;30.70;19.67;;;;;;;10.34;58.49;101344.92;1970698;99;25351;-77
2022/11/27 12:32:10;;;;;;;32.80;20.97;;;;;;;10.34;58.43;101341.01;1978361;99;25843;-77
2022/11/27 12:36:05;;;;;;;34.80;21.82;;;;;;;10.33;58.40;101337.05;1955197;99;25940;-82
2022/11/27 12:40:14;;;;;;;;;;;;;;;;;;;;;
2022/11/27 12:44:09;;;;;;;;;;;;;;;;;;;;;
2022/11/27 12:52:23;;;;;;;;;;;;;;;;;;;;;
2022/11/27 12:57:31;;;;;;;32.17;21.60;;;;;;;10.30;58.32;101339.53;1703671;116;25955;-80
2022/11/27 13:06:23;;;;;;;32.03;19.75;;;;;;;10.28;58.28;101326.84;1742885;110;26355;-78
2022/11/27 13:14:37;;;;;;;29.02;19.73;;;;;;;10.27;58.27;101327.68;1776961;110;25882;-81
2022/11/27 13:19:00;;;;;;;30.68;18.48;;;;;;;10.27;58.27;101331.59;1791689;108;26058;-85
2022/11/27 13:22:34;;;;;;;33.05;20.43;;;;;;;10.26;58.27;101325.88;1826443;107;25874;-79
2022/11/27 13:26:23;;;;;;;;;;;;;;;;;;;;;
2022/11/27 13:30:24;;;;;;;30.30;18.87;;;;;;;10.25;58.24;101325.37;1894248;102;25824;-88
2022/11/27 13:34:23;;;;;;;29.70;18.85;;;;;;;10.24;58.24;101317.98;1902527;104;25406;-79
2022/11/27 13:38:45;;;;;;;;;;;;;;;;;;;;;
2022/11/27 13:42:21;;;;;;;30.43;18.40;;;;;;;10.23;58.26;101325.75;1967148;97;26125;-80
2022/11/27 13:46:13;;;;;;;25.52;17.42;;;;;;;10.23;58.25;101334.45;2016246;96;25900;-78
2022/11/27 13:49:42;;;;;;;28.62;18.17;;;;;;;10.22;58.26;101340.47;2016153;95;26407;-79
2022/11/27 13:53:27;;;;;;;29.80;19.48;;;;;;;10.20;58.28;101341.27;2017026;96;25656;-82
2022/11/27 13:57:20;;;;;;;26.10;17.82;;;;;;;10.21;58.29;101337.82;2026569;97;26589;-81
2022/11/27 14:01:09;;;;;;;27.37;18.00;;;;;;;10.21;58.29;101330.88;2047605;95;26344;-82
2022/11/27 14:04:49;;;;;;;27.52;17.80;;;;;;;10.20;58.30;101329.11;2046249;96;25997;-85
2022/11/27 14:08:48;;;;;;;25.02;16.65;;;;;;;10.20;58.30;101317.80;1988889;94;25897;-81
2022/11/27 14:12:37;;;;;;;27.77;18.07;;;;;;;10.19;58.31;101311.68;1947917;98;26255;-83
2022/11/27 14:17:07;;;;;;;;;;;;;;;;;;;;;
2022/11/27 14:36:26;;;;;;;;;;;;;;;;;;;;;
2022/11/27 14:40:52;;;;;;;;;;;;;;;;;;;;;
2022/11/27 14:54:34;;;;;;;;;;;;;;;;;;;;;
2022/11/27 14:59:27;;;;;;;25.92;17.98;;;;;;;10.13;60.83;101308.85;1776983;105;25834;-85
2022/11/27 15:03:41;;;;;;;;;;;;;;;;;;;;;
2022/11/27 15:11:19;;;;;;;25.52;17.52;;;;;;;10.07;60.83;101299.06;1710918;114;25923;-80
2022/11/27 15:15:22;;;;;;;24.35;17.27;;;;;;;10.06;60.77;101294.69;1689513;114;26255;-82
2022/11/27 15:19:02;;;;;;;26.02;16.15;;;;;;;10.05;60.72;101290.70;1692315;114;32984;-81
2022/11/27 15:23:00;;;;;;;;;;;;;;;;;;;;;
2022/11/27 15:26:55;;;;;;;24.57;16.23;;;;;;;10.04;60.62;101298.05;1696417;114;26175;-84
2022/11/27 15:30:30;;;;;;;24.30;18.07;;;;;;;10.03;60.54;101294.98;1682519;113;25790;-80
2022/11/27 15:34:16;;;;;;;28.45;18.85;;;;;;;10.01;60.48;101297.92;1683976;114;25846;-84
2022/11/27 15:38:08;;;;;;;;;;;;;;;;;;;;;
2022/11/27 15:41:56;;;;;;;24.00;17.87;;;;;;;9.99;60.40;101296.96;1696323;113;34476;-83
2022/11/27 15:45:45;;;;;;;26.05;17.27;;;;;;;9.97;60.35;101298.22;1777465;108;26052;-85
2022/11/27 15:49:50;;;;;;;;;;;;;;;;;;;;;
2022/11/27 15:53:49;;;;;;;;;;;;;;;;;;;;;
2022/11/27 16:01:06;;;;;;;;;;;;;;;;;;;;;
2022/11/27 16:04:38;;;;;;;25.23;17.30;;;;;;;9.92;60.14;101302.34;1853869;105;26600;-79
2022/11/27 16:08:23;;;;;;;24.07;16.97;;;;;;;9.91;60.12;101294.94;1854210;105;25875;-81
2022/11/27 16:11:58;;;;;;;24.85;17.05;;;;;;;9.91;60.07;101297.55;1854019;103;25756;-80
2022/11/27 16:15:53;;;;;;;27.35;17.25;;;;;;;9.91;60.05;101301.45;1838254;105;25475;-79
2022/11/27 16:19:24;;;;;;;27.25;18.30;;;;;;;9.91;60.01;101288.84;1823129;106;25868;-82
2022/11/27 16:23:23;;;;;;;29.27;19.52;;;;;;;9.90;59.97;101280.56;1770841;109;25924;-80
2022/11/27 16:30:26;;;;;;;25.70;16.95;;;;;;;9.88;59.94;101275.70;1838930;106;26040;-80
2022/11/27 16:34:34;;;;;;;;;;;;;;;;;;;;;
2022/11/27 17:02:27;;;;;;;;;;;;;;;;;;;;;
2022/11/27 17:23:35;;;;;;;32.23;19.40;;;;;;;12.33;65.91;101252.28;1726073;107;25926;-79
2022/11/27 17:27:21;;;;;;;;;;;;;;;;;;;;;
2022/11/27 17:31:06;;;;;;;29.32;18.67;;;;;;;13.35;64.95;101250.39;1718637;110;25857;-80
2022/11/27 17:34:45;;;;;;;29.87;19.27;;;;;;;13.35;64.95;101250.39;1761109;107;25935;-83
2022/11/27 17:38:27;;;;;;;34.18;19.73;;;;;;;13.56;64.27;101249.63;1804356;105;25819;-83
2022/11/27 17:42:08;;;;;;;;;;;;;;;;;;;;;
2022/11/27 17:45:54;;;;;;;31.33;18.90;;;;;;;13.90;63.54;101243.89;1878767;103;26187;-79
2022/11/27 18:12:10;;;;;;;;;;;;;;;;;;;;;
2022/11/27 18:24:16;;;;;;;35.75;22.90;;;;;;;12.19;61.64;101229.64;1710240;112;26201;-82
2022/11/27 18:27:58;;;;;;;38.85;24.07;;;;;;;12.01;61.68;101222.09;1760479;109;25969;-84
2022/11/27 18:31:35;;;;;;;37.15;23.22;;;;;;;11.89;61.71;101223.91;1808575;108;25872;-85
2022/11/27 18:35:11;;;;;;;37.48;24.72;;;;;;;11.79;61.74;101217.89;1797553;108;25880;-82
2022/11/27 18:42:14;;;;;;;39.05;23.10;;;;;;;11.61;61.65;101215.98;1765178;110;25904;-80
2022/11/27 18:45:43;;;;;;;36.98;23.52;;;;;;;11.51;61.81;101215.70;1760887;109;25832;-81
2022/11/27 18:52:57;;;;;;;;;;;;;;;;;;;;;
2022/11/27 18:56:29;;;;;;;40.48;23.70;;;;;;;11.30;61.86;101215.84;1818706;107;25819;-83
2022/11/27 18:59:54;;;;;;;42.35;25.40;;;;;;;11.24;61.90;101213.05;1841376;105;25867;-81
2022/11/27 19:03:37;;;;;;;38.75;23.12;;;;;;;11.18;61.93;101208.04;1849020;103;25952;-83
2022/11/27 19:10:45;;;;;;;42.23;25.45;;;;;;;11.09;61.99;101207.29;1856554;105;26006;-81
2022/11/27 19:19:24;;;;;;;;;;;;;;;;;;;;;
2022/11/27 19:23:13;;;;;;;40.15;25.45;;;;;;;10.92;62.06;101207.13;1677970;115;25857;-79
2022/11/27 19:26:50;;;;;;;38.90;24.85;;;;;;;10.83;62.06;101205.06;1645885;112;26076;-82
2022/11/27 19:30:18;;;;;;;45.23;26.02;;;;;;;10.83;62.06;101205.06;1642609;117;26298;-80
2022/11/27 19:34:07;;;;;;;41.65;25.90;;;;;;;10.74;62.05;101187.38;1642025;118;25939;-80
2022/11/27 19:46:48;;;;;;;46.37;25.25;;;;;;;10.69;62.09;101200.66;1785758;107;25497;-81
2022/11/27 19:50:15;;;;;;;37.80;25.70;;;;;;;10.64;62.16;101198.31;1721698;110;26289;-81
2022/11/27 19:53:42;;;;;;;44.05;24.90;;;;;;;10.61;62.16;101199.50;1707449;111;25773;-81
2022/11/27 19:57:20;;;;;;;38.75;24.67;;;;;;;10.59;62.16;101197.24;1681219;116;25876;-82
2022/11/27 20:01:05;;;;;;;;;;;;;;;;;;;;;
2022/11/27 20:05:07;;;;;;;;;;;;;;;;;;;;;
